Archival Weather

NSFA McMurdo Sound

NSFA McMurdo Sound, Antarctica (NZCM)

Report from: Friday, September 23, 2022 2:55 AM UTC
Current time: Sunday, December 4, 2022 11:27 AM UTC

Current weather
Weather history
Weather forecast

Temperature-18.7°C (-1.7°F)
Wind chill-27.4°C (-17.3°F)
Dew point-27.7°C (-17.9°F)
Winds 8 kts (4.1 m/s, 9.2 mph) North (350°)
Visibility6.2 mi. (10 km)
Clouds Scattered clouds 4,100 ft. (1,250 m)
Ceiling: Broken clouds 5,000 ft. (1,524 m)
Overcast 7,000 ft. (2,134 m)
Altimeter28.65 in.Hg (970 mB)
Relative humidity45 %
Density altitude-2,766 ft. (-843 m)
Sea-level pressure107.1 kPa (1071 mB, 31.62 in.Hg)
Remarks Fully automated report
System requires maintenance
Automated weather observing station with precipitation discriminator
Pressure falling more quickly
Flight conditions Visual Meteorological Conditions
Raw dataNZCM 230255Z AUTO 35008KT 9999 SCT041 BKN050 OVC070 M19/M28 A2865 RMK AO2 SLP709 T11871277 58017 $
An error has occurred. This application may no longer respond until reloaded. Reload 🗙